Capitol Logistics 975


FAOR
O.R. Tambo International Airport
Johannesburg, ZA
HKJK
Jomo Kenyatta International Airport
Nairobi, KE

Activity Log

Date Flight Route Aircraft Duration
No Flights Yet

Route Details

Aircraft Information
Primary: Boeing 767-300BDSF
Backup: Not Available
Route Data
Distance: 1566nm
Sched. Duration: 3h 50m
Avg. Duration: 0h 00m (-350m)
Times Flown: 0
Recm'd Route: Not Available
Planned Altitude: 35,000ft
Origin Wx: FAOR 270200Z 02004KT 360V080 CAVOK 16/11 Q1021 NOSIG
Dest. Wx: HKJK 270130Z 02005KT 9999 -RA BKN006 OVC015 17/16 Q1021 NOSIG
Notes:

Financial History
Total Freight: 0lbs
Average Load: 0lbs/flt
Fuel Used: 0lbs
Avg. Fuel Used: 0lbs/flt
Fuel Expense: $0
Avg. Fuel Expense: $0
Avg. Fuel Cost: $0/lbs
Total Gross Income: $0
Pilot Pay: $0
Total Expenses: $0
Total Revenue: $0
Average Revenue: $0